Time;durP1;ratioP1;P1;durP2;ratioP2;P2;SDS_P1;SDS_P2;PMS_P1;PMS_P2;Temp;Humidity;BMP_temperature;BMP_pressure;BME280_temperature;BME280_humidity;BME280_pressure;Samples;Min_cycle;Max_cycle;Signal;HPM_P1;HPM_P2
2022/12/09 00:02:12;;;;;;;64.70;30.83;;;;;;;;;;6245648;23;20091;-63
2022/12/09 00:04:38;;;;;;;77.70;34.63;;;;;;;;;;6245668;23;20465;-63
2022/12/09 00:07:04;;;;;;;63.03;28.80;;;;;;;;;;6245592;23;20004;-63
2022/12/09 00:09:30;;;;;;;61.33;28.90;;;;;;;;;;6245587;23;20013;-63
2022/12/09 00:11:56;;;;;;;54.35;24.70;;;;;;;;;;6245350;23;20058;-63
2022/12/09 00:14:22;;;;;;;63.63;28.33;;;;;;;;;;6245316;23;20008;-63
2022/12/09 00:16:48;;;;;;;50.90;24.55;;;;;;;;;;6245239;23;20012;-63
2022/12/09 00:19:14;;;;;;;47.92;22.42;;;;;;;;;;6245755;23;20447;-63
2022/12/09 00:21:42;;;;;;;41.63;20.95;;;;;;;;;;6244978;23;20011;-63
2022/12/09 00:24:10;;;;;;;37.35;17.95;;;;;;;;;;6245562;22;20004;-63
2022/12/09 00:26:36;;;;;;;32.47;16.67;;;;;;;;;;6245519;22;20493;-64
2022/12/09 00:29:03;;;;;;;34.78;15.52;;;;;;;;;;6245600;22;20004;-63
2022/12/09 00:31:31;;;;;;;26.67;15.05;;;;;;;;;;6245058;23;20000;-63
2022/12/09 00:33:59;;;;;;;29.38;15.25;;;;;;;;;;6243504;23;20004;-63
2022/12/09 00:36:25;;;;;;;34.15;16.38;;;;;;;;;;6243576;23;20005;-63
2022/12/09 00:38:53;;;;;;;32.85;16.55;;;;;;;;;;6245298;23;20318;-63
2022/12/09 00:41:19;;;;;;;31.42;16.70;;;;;;;;;;6245448;22;20007;-63
2022/12/09 00:43:46;;;;;;;34.70;15.15;;;;;;;;;;6243592;23;20497;-63
2022/12/09 00:46:13;;;;;;;28.52;14.52;;;;;;;;;;6243853;23;20469;-63
2022/12/09 00:48:39;;;;;;;31.77;13.13;;;;;;;;;;6245258;23;20050;-64
2022/12/09 00:51:07;;;;;;;23.33;12.50;;;;;;;;;;6244927;23;20004;-64
2022/12/09 00:53:33;;;;;;;26.45;12.38;;;;;;;;;;6245154;23;20070;-63
2022/12/09 00:55:59;;;;;;;19.27;10.25;;;;;;;;;;6243556;23;20326;-63
2022/12/09 00:58:25;;;;;;;17.65;9.70;;;;;;;;;;6245363;23;20077;-63
2022/12/09 01:00:55;;;;;;;14.38;7.80;;;;;;;;;;6243245;23;20082;-63
2022/12/09 01:03:21;;;;;;;18.83;8.98;;;;;;;;;;6243723;23;20512;-63
2022/12/09 01:05:48;;;;;;;16.73;9.43;;;;;;;;;;6244662;23;20004;-63
2022/12/09 01:08:15;;;;;;;18.13;10.32;;;;;;;;;;6245509;23;20389;-63
2022/12/09 01:10:44;;;;;;;16.85;8.65;;;;;;;;;;6243066;23;20012;-63
2022/12/09 01:13:10;;;;;;;17.00;9.70;;;;;;;;;;6244761;23;20013;-63
2022/12/09 01:15:37;;;;;;;12.80;8.15;;;;;;;;;;6245218;22;20001;-63
2022/12/09 01:18:03;;;;;;;18.33;8.52;;;;;;;;;;6245186;23;20004;-63
2022/12/09 01:20:29;;;;;;;15.73;7.80;;;;;;;;;;6244898;23;20028;-63
2022/12/09 01:22:58;;;;;;;15.43;8.70;;;;;;;;;;6243088;23;20350;-63
2022/12/09 01:25:24;;;;;;;13.80;8.02;;;;;;;;;;6243699;22;20067;-63
2022/12/09 01:27:51;;;;;;;17.92;8.40;;;;;;;;;;6243701;23;20467;-63
2022/12/09 01:30:17;;;;;;;14.63;8.05;;;;;;;;;;6245010;23;20008;-63
2022/12/09 01:32:43;;;;;;;16.77;8.98;;;;;;;;;;6243339;23;20332;-63
2022/12/09 01:35:09;;;;;;;17.48;9.43;;;;;;;;;;6242993;23;20079;-63
2022/12/09 01:37:36;;;;;;;16.60;8.90;;;;;;;;;;6244876;23;20011;-63
2022/12/09 01:40:04;;;;;;;16.63;9.60;;;;;;;;;;6243096;23;20012;-63
2022/12/09 01:42:33;;;;;;;19.85;10.07;;;;;;;;;;6245110;23;20031;-63
2022/12/09 01:45:17;;;;;;;17.95;9.75;;;;;;;;;;6246491;23;20008;-63
2022/12/09 01:47:43;;;;;;;17.95;9.82;;;;;;;;;;6246895;23;20014;-63
2022/12/09 01:50:09;;;;;;;19.45;9.95;;;;;;;;;;6246438;23;20004;-63
2022/12/09 01:52:36;;;;;;;19.75;10.25;;;;;;;;;;6247034;23;20307;-63
2022/12/09 01:55:02;;;;;;;26.73;10.77;;;;;;;;;;6245092;23;20414;-63
2022/12/09 01:57:28;;;;;;;19.70;9.98;;;;;;;;;;6247026;23;20024;-63
2022/12/09 01:59:54;;;;;;;21.40;10.40;;;;;;;;;;6244777;23;20027;-63
2022/12/09 02:02:22;;;;;;;19.27;10.30;;;;;;;;;;6245306;23;20001;-63
2022/12/09 02:04:49;;;;;;;21.52;10.57;;;;;;;;;;6246300;22;20011;-63
2022/12/09 02:07:17;;;;;;;25.35;9.98;;;;;;;;;;6245292;23;20117;-63
2022/12/09 02:09:44;;;;;;;23.10;9.85;;;;;;;;;;6245223;23;20014;-63
2022/12/09 02:12:20;;;;;;;18.92;9.27;;;;;;;;;;6244799;23;20024;-63
2022/12/09 02:14:52;;;;;;;15.93;8.77;;;;;;;;;;6244835;23;20069;-63
2022/12/09 02:17:37;;;;;;;17.48;9.55;;;;;;;;;;6244671;23;20031;-63
2022/12/09 02:20:05;;;;;;;20.90;7.85;;;;;;;;;;6244980;23;20004;-63
2022/12/09 02:22:40;;;;;;;19.02;8.77;;;;;;;;;;6244928;23;20004;-63
2022/12/09 02:25:06;;;;;;;17.17;8.70;;;;;;;;;;6246811;22;20000;-63
2022/12/09 02:27:45;;;;;;;15.43;8.38;;;;;;;;;;6245100;23;20004;-63
2022/12/09 02:30:22;;;;;;;17.45;9.23;;;;;;;;;;6244993;23;20054;-63
2022/12/09 02:33:11;;;;;;;23.40;8.18;;;;;;;;;;6244545;23;20004;-63
2022/12/09 02:35:53;;;;;;;31.73;9.65;;;;;;;;;;6246407;22;20000;-63
2022/12/09 02:38:25;;;;;;;31.50;11.50;;;;;;;;;;6244942;23;20000;-63
2022/12/09 02:40:51;;;;;;;30.42;11.63;;;;;;;;;;6246499;22;20000;-63
2022/12/09 02:43:20;;;;;;;34.92;12.15;;;;;;;;;;6246659;23;20338;-63
2022/12/09 02:45:47;;;;;;;35.70;12.82;;;;;;;;;;6246473;22;20066;-63
2022/12/09 02:48:14;;;;;;;48.88;14.18;;;;;;;;;;6244355;23;20316;-63
2022/12/09 02:50:42;;;;;;;36.60;14.02;;;;;;;;;;6244930;23;20008;-63
2022/12/09 02:53:11;;;;;;;42.92;12.98;;;;;;;;;;6244854;23;20011;-63
2022/12/09 02:55:39;;;;;;;29.58;11.57;;;;;;;;;;6244732;23;20008;-63
2022/12/09 02:58:05;;;;;;;36.63;11.80;;;;;;;;;;6246098;23;20019;-63
2022/12/09 03:00:33;;;;;;;33.90;11.23;;;;;;;;;;6244700;23;20312;-63
2022/12/09 03:03:04;;;;;;;22.00;9.52;;;;;;;;;;6245861;23;20083;-63
2022/12/09 03:05:33;;;;;;;18.83;9.52;;;;;;;;;;6245989;23;20008;-63
2022/12/09 03:08:18;;;;;;;17.65;7.93;;;;;;;;;;6246016;23;20087;-63
2022/12/09 03:11:02;;;;;;;20.25;8.88;;;;;;;;;;6246232;23;20089;-63
2022/12/09 03:13:31;;;;;;;20.20;10.00;;;;;;;;;;6246039;23;20016;-63
2022/12/09 03:16:01;;;;;;;20.23;10.05;;;;;;;;;;6245718;23;20000;-63
2022/12/09 03:18:28;;;;;;;24.90;10.43;;;;;;;;;;6246240;23;20004;-63
2022/12/09 03:20:55;;;;;;;29.38;9.82;;;;;;;;;;6246082;23;20000;-63
2022/12/09 03:23:22;;;;;;;20.95;9.95;;;;;;;;;;6246183;23;20008;-63
2022/12/09 03:25:51;;;;;;;23.42;9.98;;;;;;;;;;6245958;23;20011;-63
2022/12/09 03:28:22;;;;;;;24.02;10.70;;;;;;;;;;6246225;23;20015;-63
2022/12/09 03:30:49;;;;;;;27.80;10.48;;;;;;;;;;6245699;23;20065;-63
2022/12/09 03:33:16;;;;;;;29.10;11.07;;;;;;;;;;6246155;23;20083;-63
2022/12/09 03:35:44;;;;;;;29.10;12.40;;;;;;;;;;6245913;23;20012;-63
2022/12/09 03:38:14;;;;;;;21.17;9.93;;;;;;;;;;6245918;23;19996;-63
2022/12/09 03:40:41;;;;;;;16.70;9.82;;;;;;;;;;6246190;22;20338;-63
2022/12/09 03:43:21;;;;;;;19.20;9.55;;;;;;;;;;6245735;23;20026;-63
2022/12/09 03:45:47;;;;;;;15.55;7.28;;;;;;;;;;6245614;23;20008;-63
2022/12/09 03:48:13;;;;;;;16.45;7.50;;;;;;;;;;6245834;23;20246;-63
2022/12/09 03:50:43;;;;;;;11.05;6.95;;;;;;;;;;6246167;23;20171;-63
2022/12/09 03:53:12;;;;;;;11.50;6.78;;;;;;;;;;6245693;23;20004;-63
2022/12/09 03:55:42;;;;;;;13.38;5.70;;;;;;;;;;6245868;23;20232;-63
2022/12/09 03:58:09;;;;;;;11.13;6.00;;;;;;;;;;6245508;23;20464;-63
2022/12/09 04:00:37;;;;;;;14.52;5.93;;;;;;;;;;6245594;23;20304;-63
2022/12/09 04:03:03;;;;;;;11.73;5.88;;;;;;;;;;6245678;23;20028;-63
2022/12/09 04:05:30;;;;;;;8.38;5.75;;;;;;;;;;6245697;23;20011;-63
2022/12/09 04:07:56;;;;;;;12.43;6.07;;;;;;;;;;6245347;23;20015;-63
2022/12/09 04:10:22;;;;;;;12.45;6.07;;;;;;;;;;6245704;23;20000;-63
2022/12/09 04:12:48;;;;;;;13.05;6.07;;;;;;;;;;6245149;23;20019;-63
2022/12/09 04:15:14;;;;;;;12.88;6.80;;;;;;;;;;6245274;23;20034;-63
2022/12/09 04:17:40;;;;;;;16.30;6.30;;;;;;;;;;6245772;22;20028;-63
2022/12/09 04:20:07;;;;;;;10.10;5.50;;;;;;;;;;6245233;23;20075;-63
2022/12/09 04:22:33;;;;;;;12.02;7.22;;;;;;;;;;6245600;23;20010;-63
2022/12/09 04:24:59;;;;;;;9.70;5.43;;;;;;;;;;6245499;23;20091;-63
2022/12/09 04:27:25;;;;;;;12.40;5.50;;;;;;;;;;6245636;23;20039;-63
2022/12/09 04:29:51;;;;;;;12.55;6.50;;;;;;;;;;6245268;23;20007;-63
2022/12/09 04:32:17;;;;;;;9.63;5.80;;;;;;;;;;6245548;23;20004;-63
2022/12/09 04:34:44;;;;;;;8.80;5.80;;;;;;;;;;6245245;23;20046;-63
2022/12/09 04:37:11;;;;;;;11.10;5.22;;;;;;;;;;6245312;23;20028;-63
2022/12/09 04:39:40;;;;;;;10.57;4.93;;;;;;;;;;6245417;22;20008;-63
2022/12/09 04:42:06;;;;;;;8.43;5.32;;;;;;;;;;6245165;22;20405;-63
2022/12/09 04:44:32;;;;;;;6.97;4.45;;;;;;;;;;6245366;23;20004;-63
2022/12/09 04:46:58;;;;;;;8.85;5.32;;;;;;;;;;6245122;23;20023;-63
2022/12/09 04:49:24;;;;;;;10.50;4.95;;;;;;;;;;6245374;23;20312;-63
2022/12/09 04:51:50;;;;;;;7.90;4.82;;;;;;;;;;6245345;23;20414;-63
2022/12/09 04:54:16;;;;;;;7.55;4.45;;;;;;;;;;6245153;23;20030;-63
2022/12/09 04:56:43;;;;;;;9.13;4.50;;;;;;;;;;6244966;23;20028;-63
2022/12/09 04:59:09;;;;;;;8.23;4.97;;;;;;;;;;6244836;23;20375;-63
2022/12/09 05:01:35;;;;;;;6.70;4.38;;;;;;;;;;6245335;23;20311;-63
2022/12/09 05:04:02;;;;;;;9.68;4.38;;;;;;;;;;6245144;23;20078;-63
2022/12/09 05:06:28;;;;;;;5.55;4.47;;;;;;;;;;6245270;23;20030;-63
2022/12/09 05:08:54;;;;;;;7.57;5.18;;;;;;;;;;6245078;23;20004;-63
2022/12/09 05:11:22;;;;;;;9.15;4.80;;;;;;;;;;6244779;23;20012;-63
2022/12/09 05:13:49;;;;;;;14.27;4.85;;;;;;;;;;6244920;22;20046;-63
2022/12/09 05:16:16;;;;;;;7.13;5.00;;;;;;;;;;6245020;23;20057;-63
2022/12/09 05:18:42;;;;;;;11.13;5.00;;;;;;;;;;6246199;23;20007;-63
2022/12/09 05:21:09;;;;;;;9.02;4.68;;;;;;;;;;6247080;23;20004;-63
2022/12/09 05:23:35;;;;;;;9.15;5.65;;;;;;;;;;6247160;23;20505;-63
2022/12/09 05:26:03;;;;;;;7.43;5.05;;;;;;;;;;6246652;23;20004;-63
2022/12/09 05:28:29;;;;;;;11.13;4.93;;;;;;;;;;6245122;23;20016;-63
2022/12/09 05:30:59;;;;;;;11.15;5.90;;;;;;;;;;6245698;23;20102;-63
2022/12/09 05:33:25;;;;;;;10.45;5.43;;;;;;;;;;6245825;23;20050;-63
2022/12/09 05:35:51;;;;;;;8.35;5.38;;;;;;;;;;6246341;23;20004;-63
2022/12/09 05:38:17;;;;;;;9.18;5.10;;;;;;;;;;6246233;23;19996;-63
2022/12/09 05:40:43;;;;;;;9.35;5.78;;;;;;;;;;6246580;23;20004;-63
2022/12/09 05:43:09;;;;;;;8.07;5.47;;;;;;;;;;6246766;23;20035;-63
2022/12/09 05:45:35;;;;;;;11.15;5.53;;;;;;;;;;6247170;23;20016;-63
2022/12/09 05:48:01;;;;;;;7.35;4.72;;;;;;;;;;6247227;23;20422;-63
2022/12/09 05:50:27;;;;;;;7.97;4.78;;;;;;;;;;6246090;23;20004;-63
2022/12/09 05:52:53;;;;;;;7.82;5.03;;;;;;;;;;6245509;23;20344;-63
2022/12/09 05:55:19;;;;;;;7.75;4.95;;;;;;;;;;6245404;23;20028;-63
2022/12/09 05:57:46;;;;;;;10.50;5.05;;;;;;;;;;6245331;23;20071;-63
2022/12/09 06:00:12;;;;;;;10.65;5.72;;;;;;;;;;6244940;23;20015;-62
2022/12/09 06:02:38;;;;;;;15.82;7.75;;;;;;;;;;6245743;23;20062;-63
2022/12/09 06:05:04;;;;;;;12.52;7.05;;;;;;;;;;6245479;23;20087;-62
2022/12/09 06:07:31;;;;;;;11.02;7.03;;;;;;;;;;6245614;23;20119;-62
2022/12/09 06:09:57;;;;;;;11.73;7.78;;;;;;;;;;6245202;23;20012;-63
2022/12/09 06:12:23;;;;;;;8.77;6.40;;;;;;;;;;6244891;23;20023;-63
2022/12/09 06:14:49;;;;;;;12.77;7.15;;;;;;;;;;6245135;23;20011;-63
2022/12/09 06:17:15;;;;;;;10.35;5.90;;;;;;;;;;6245022;23;20075;-63
2022/12/09 06:19:41;;;;;;;11.70;6.30;;;;;;;;;;6244664;23;20039;-63
2022/12/09 06:22:07;;;;;;;9.48;5.75;;;;;;;;;;6244789;23;20496;-63
2022/12/09 06:24:34;;;;;;;12.80;5.95;;;;;;;;;;6244814;23;20038;-63
2022/12/09 06:27:00;;;;;;;11.43;5.63;;;;;;;;;;6245088;22;20008;-63
2022/12/09 06:29:26;;;;;;;9.43;5.63;;;;;;;;;;6244621;23;20014;-63
2022/12/09 06:31:53;;;;;;;10.07;6.32;;;;;;;;;;6246493;23;20004;-63
2022/12/09 06:34:19;;;;;;;10.13;6.35;;;;;;;;;;6244416;23;20011;-63
2022/12/09 06:36:45;;;;;;;11.30;5.40;;;;;;;;;;6244381;23;19997;-64
2022/12/09 06:39:13;;;;;;;10.38;6.25;;;;;;;;;;6244015;23;20445;-64
2022/12/09 06:41:42;;;;;;;10.50;6.75;;;;;;;;;;6244508;22;20035;-64
2022/12/09 06:44:11;;;;;;;16.25;8.52;;;;;;;;;;6244554;23;20008;-64
2022/12/09 06:46:37;;;;;;;23.92;12.05;;;;;;;;;;6244324;22;20005;-63
2022/12/09 06:49:03;;;;;;;31.10;13.80;;;;;;;;;;6244691;23;20008;-63
2022/12/09 06:51:29;;;;;;;32.88;14.80;;;;;;;;;;6244371;23;20470;-63
2022/12/09 06:53:56;;;;;;;32.22;13.43;;;;;;;;;;6244016;23;20008;-63
2022/12/09 06:56:22;;;;;;;20.90;11.05;;;;;;;;;;6243721;23;20004;-63
2022/12/09 06:58:48;;;;;;;18.30;10.55;;;;;;;;;;6245072;23;20012;-64
2022/12/09 07:01:16;;;;;;;24.20;11.32;;;;;;;;;;6243761;23;20000;-63
2022/12/09 07:03:43;;;;;;;22.65;11.35;;;;;;;;;;6245624;23;20030;-64
2022/12/09 07:06:28;;;;;;;18.77;10.63;;;;;;;;;;6244968;23;20011;-64
2022/12/09 07:08:54;;;;;;;14.23;8.77;;;;;;;;;;6244960;23;20083;-64
2022/12/09 07:11:20;;;;;;;14.70;9.25;;;;;;;;;;6245323;23;20007;-64
2022/12/09 07:13:47;;;;;;;19.33;9.60;;;;;;;;;;6245618;23;20300;-64
2022/12/09 07:16:13;;;;;;;15.40;8.85;;;;;;;;;;6245880;23;20004;-63
2022/12/09 07:18:39;;;;;;;21.25;10.98;;;;;;;;;;6245308;23;20103;-63
2022/12/09 07:21:06;;;;;;;15.68;9.50;;;;;;;;;;6245151;23;20450;-64
2022/12/09 07:23:32;;;;;;;16.30;9.68;;;;;;;;;;6244484;23;20008;-64
2022/12/09 07:26:00;;;;;;;20.23;10.95;;;;;;;;;;6245315;23;20079;-63
2022/12/09 07:28:27;;;;;;;18.52;10.13;;;;;;;;;;6244675;22;20027;-63
2022/12/09 07:30:53;;;;;;;17.00;9.32;;;;;;;;;;6244074;22;20012;-63
2022/12/09 07:33:19;;;;;;;17.63;9.80;;;;;;;;;;6244997;23;20062;-63
2022/12/09 07:35:45;;;;;;;21.50;9.27;;;;;;;;;;6245212;23;20476;-63
2022/12/09 07:38:12;;;;;;;19.33;10.13;;;;;;;;;;6244640;23;20439;-63
2022/12/09 07:40:39;;;;;;;20.50;10.73;;;;;;;;;;6244517;23;19997;-63
2022/12/09 07:43:08;;;;;;;18.88;10.43;;;;;;;;;;6245308;22;20075;-63
2022/12/09 07:45:34;;;;;;;23.00;10.18;;;;;;;;;;6243684;23;20050;-64
2022/12/09 07:48:00;;;;;;;23.50;10.45;;;;;;;;;;6243502;23;20004;-64
2022/12/09 07:50:26;;;;;;;15.82;9.60;;;;;;;;;;6243500;23;20030;-63
2022/12/09 07:52:52;;;;;;;19.30;9.48;;;;;;;;;;6243195;23;20014;-63
2022/12/09 07:55:19;;;;;;;17.50;9.93;;;;;;;;;;6243720;23;20074;-63
2022/12/09 07:57:45;;;;;;;20.55;10.13;;;;;;;;;;6243332;23;20075;-63
2022/12/09 08:00:11;;;;;;;25.48;11.40;;;;;;;;;;6243411;23;20121;-63
2022/12/09 08:02:38;;;;;;;30.30;13.05;;;;;;;;;;6242357;23;20019;-63
2022/12/09 08:05:04;;;;;;;21.88;11.90;;;;;;;;;;6243464;23;20442;-63
2022/12/09 08:07:30;;;;;;;25.65;12.65;;;;;;;;;;6243577;23;20011;-63
2022/12/09 08:09:56;;;;;;;28.13;12.45;;;;;;;;;;6242707;23;20046;-63
2022/12/09 08:12:23;;;;;;;23.05;11.32;;;;;;;;;;6243437;23;20019;-63
2022/12/09 08:14:49;;;;;;;23.75;12.45;;;;;;;;;;6243947;23;20059;-63
2022/12/09 08:17:16;;;;;;;25.48;12.48;;;;;;;;;;6244085;23;20343;-63
2022/12/09 08:19:42;;;;;;;19.90;11.70;;;;;;;;;;6243216;23;20435;-63
2022/12/09 08:22:08;;;;;;;26.75;11.88;;;;;;;;;;6244200;23;20039;-63
2022/12/09 08:24:34;;;;;;;22.45;12.35;;;;;;;;;;6243606;23;20350;-63
2022/12/09 08:27:00;;;;;;;27.02;13.32;;;;;;;;;;6243154;23;20015;-63
2022/12/09 08:29:26;;;;;;;25.33;13.45;;;;;;;;;;6242854;23;20032;-63
2022/12/09 08:31:53;;;;;;;23.48;12.13;;;;;;;;;;6242757;23;20000;-63
2022/12/09 08:34:19;;;;;;;27.90;13.00;;;;;;;;;;6242275;23;20363;-63
2022/12/09 08:36:45;;;;;;;27.15;14.27;;;;;;;;;;6242471;23;20350;-63
2022/12/09 08:39:12;;;;;;;31.58;16.77;;;;;;;;;;6243020;23;20000;-63
2022/12/09 08:41:38;;;;;;;34.70;15.93;;;;;;;;;;6243395;23;20486;-63
2022/12/09 08:44:12;;;;;;;32.85;15.52;;;;;;;;;;6243739;23;20369;-63
2022/12/09 08:46:39;;;;;;;28.77;12.18;;;;;;;;;;6243151;23;20012;-63
2022/12/09 08:49:06;;;;;;;20.27;12.23;;;;;;;;;;6243287;23;20004;-63
2022/12/09 08:51:32;;;;;;;20.42;11.75;;;;;;;;;;6243497;23;20038;-63
2022/12/09 08:53:59;;;;;;;19.38;12.55;;;;;;;;;;6243581;23;20510;-63
2022/12/09 08:56:25;;;;;;;25.42;12.90;;;;;;;;;;6243662;23;20509;-63
2022/12/09 08:58:52;;;;;;;21.35;12.07;;;;;;;;;;6243078;23;20058;-63
2022/12/09 09:01:19;;;;;;;20.23;13.00;;;;;;;;;;6242542;23;20083;-63
2022/12/09 09:03:46;;;;;;;24.13;13.55;;;;;;;;;;6242108;23;20457;-63
2022/12/09 09:06:13;;;;;;;24.25;13.02;;;;;;;;;;6242533;23;20030;-63
2022/12/09 09:08:39;;;;;;;18.70;12.45;;;;;;;;;;6242209;22;20008;-63
2022/12/09 09:11:12;;;;;;;28.92;14.30;;;;;;;;;;6242709;23;20008;-63
2022/12/09 09:13:39;;;;;;;23.10;13.35;;;;;;;;;;6241922;23;20020;-63
2022/12/09 09:16:10;;;;;;;34.53;20.08;;;;;;;;;;6242690;23;20004;-63
2022/12/09 09:18:36;;;;;;;31.10;16.70;;;;;;;;;;6242329;23;20004;-63
2022/12/09 09:21:02;;;;;;;27.65;14.98;;;;;;;;;;6242077;23;20019;-63
2022/12/09 09:23:28;;;;;;;29.08;15.65;;;;;;;;;;6242669;23;20058;-63
2022/12/09 09:25:55;;;;;;;28.48;15.05;;;;;;;;;;6242232;23;20000;-63
2022/12/09 09:28:21;;;;;;;27.20;16.17;;;;;;;;;;6242380;23;20014;-63
2022/12/09 09:30:49;;;;;;;28.75;17.15;;;;;;;;;;6242216;23;20461;-63
2022/12/09 09:33:16;;;;;;;28.35;16.60;;;;;;;;;;6242144;22;20030;-63
2022/12/09 09:35:42;;;;;;;27.85;15.88;;;;;;;;;;6242402;22;20014;-63
2022/12/09 09:38:08;;;;;;;29.65;15.73;;;;;;;;;;6242077;23;20442;-63
2022/12/09 09:40:35;;;;;;;29.17;14.05;;;;;;;;;;6242717;23;20004;-63
2022/12/09 09:43:01;;;;;;;28.38;15.10;;;;;;;;;;6242071;22;20008;-63
2022/12/09 09:45:27;;;;;;;24.55;15.45;;;;;;;;;;6242700;23;20004;-63
2022/12/09 09:47:58;;;;;;;28.15;16.33;;;;;;;;;;6242624;23;20008;-63
2022/12/09 09:50:35;;;;;;;29.58;17.08;;;;;;;;;;6242552;23;20004;-63
2022/12/09 09:53:08;;;;;;;29.80;16.45;;;;;;;;;;6242136;23;20004;-63
2022/12/09 09:55:48;;;;;;;27.42;15.52;;;;;;;;;;6242730;23;20396;-63
2022/12/09 09:58:23;;;;;;;26.25;16.50;;;;;;;;;;6242382;22;20027;-63
2022/12/09 10:01:04;;;;;;;31.55;17.00;;;;;;;;;;6242084;23;20074;-63
2022/12/09 10:03:42;;;;;;;33.60;14.85;;;;;;;;;;6242056;23;20004;-63
2022/12/09 10:06:16;;;;;;;21.27;13.80;;;;;;;;;;6244007;23;20472;-63
2022/12/09 10:09:00;;;;;;;31.00;14.02;;;;;;;;;;6244476;23;20008;-63
2022/12/09 10:11:44;;;;;;;29.02;14.35;;;;;;;;;;6243804;23;20401;-63
2022/12/09 10:14:14;;;;;;;24.35;13.73;;;;;;;;;;6243792;23;20012;-63
2022/12/09 10:16:42;;;;;;;25.38;14.15;;;;;;;;;;6243548;22;20110;-63
2022/12/09 10:19:11;;;;;;;19.85;12.98;;;;;;;;;;6243500;23;20004;-63
2022/12/09 10:21:40;;;;;;;19.95;12.27;;;;;;;;;;6244251;23;20000;-63
2022/12/09 10:24:35;;;;;;;22.67;13.80;;;;;;;;;;6244228;22;20014;-63
2022/12/09 10:27:07;;;;;;;36.15;17.75;;;;;;;;;;6217999;22;20099;-63
2022/12/09 10:29:53;;;;;;;30.40;17.30;;;;;;;;;;6243480;23;20008;-64
2022/12/09 10:32:21;;;;;;;20.50;12.82;;;;;;;;;;6243478;23;20023;-64
2022/12/09 10:34:47;;;;;;;26.42;12.82;;;;;;;;;;6243745;23;20011;-63
2022/12/09 10:37:24;;;;;;;23.17;12.45;;;;;;;;;;6243555;22;20059;-63
2022/12/09 10:40:17;;;;;;;31.35;17.10;;;;;;;;;;6243771;23;20072;-63
2022/12/09 10:45:30;;;;;;;22.33;14.73;;;;;;;;;;6243354;23;20004;-63
2022/12/09 10:47:56;;;;;;;31.02;14.77;;;;;;;;;;6243315;23;20000;-63
2022/12/09 10:50:25;;;;;;;34.35;16.52;;;;;;;;;;6243605;23;20342;-63
2022/12/09 10:52:51;;;;;;;24.75;15.57;;;;;;;;;;6244040;23;20434;-63
2022/12/09 10:55:30;;;;;;;23.58;13.68;;;;;;;;;;6244540;23;20004;-63
2022/12/09 10:58:14;;;;;;;21.52;13.02;;;;;;;;;;6244628;23;20007;-64
2022/12/09 11:00:40;;;;;;;22.13;11.10;;;;;;;;;;6243934;23;20008;-64
2022/12/09 11:03:23;;;;;;;17.98;11.32;;;;;;;;;;6243993;23;20000;-63
2022/12/09 11:05:54;;;;;;;15.30;10.40;;;;;;;;;;6244594;23;20082;-64
2022/12/09 11:08:21;;;;;;;20.88;11.93;;;;;;;;;;6244067;23;20004;-64
2022/12/09 11:10:48;;;;;;;17.05;11.65;;;;;;;;;;6244718;22;20043;-64
2022/12/09 11:13:17;;;;;;;26.65;13.68;;;;;;;;;;6243868;22;20016;-63
2022/12/09 11:15:45;;;;;;;18.65;12.05;;;;;;;;;;6244404;23;20079;-63
2022/12/09 11:18:31;;;;;;;20.63;12.65;;;;;;;;;;6244160;23;20004;-63
2022/12/09 11:21:01;;;;;;;18.90;10.63;;;;;;;;;;6244121;23;20063;-63
2022/12/09 11:23:28;;;;;;;20.65;11.93;;;;;;;;;;6244423;23;20008;-63
2022/12/09 11:25:58;;;;;;;24.02;12.70;;;;;;;;;;6244615;23;20001;-63
2022/12/09 11:28:26;;;;;;;19.45;10.48;;;;;;;;;;6244310;23;20004;-63
2022/12/09 11:30:59;;;;;;;18.52;11.23;;;;;;;;;;6244727;23;20395;-63
2022/12/09 11:33:34;;;;;;;16.77;11.10;;;;;;;;;;6244394;23;20016;-63
2022/12/09 11:36:04;;;;;;;18.38;10.93;;;;;;;;;;6244183;23;20010;-63
2022/12/09 11:38:33;;;;;;;23.90;11.18;;;;;;;;;;6245205;23;20000;-63
2022/12/09 11:41:02;;;;;;;17.58;10.95;;;;;;;;;;6244151;23;20342;-63
2022/12/09 11:43:30;;;;;;;17.52;11.32;;;;;;;;;;6244189;23;20016;-63
2022/12/09 11:45:57;;;;;;;20.95;13.07;;;;;;;;;;6244377;23;20078;-63
2022/12/09 11:48:31;;;;;;;16.95;11.07;;;;;;;;;;6243847;23;20450;-63
2022/12/09 11:50:57;;;;;;;14.35;9.20;;;;;;;;;;6243684;23;20015;-63
2022/12/09 11:53:28;;;;;;;19.20;10.35;;;;;;;;;;6243519;23;20007;-64
2022/12/09 11:55:59;;;;;;;18.85;10.10;;;;;;;;;;6244273;23;20004;-64
2022/12/09 11:58:34;;;;;;;14.93;9.48;;;;;;;;;;6243644;23;20004;-64
2022/12/09 12:01:07;;;;;;;17.80;10.27;;;;;;;;;;6244193;23;20050;-64
2022/12/09 12:03:33;;;;;;;;;;;;;;;;;;6245138;22;20026;-64
2022/12/09 12:06:02;;;;;;;16.88;9.40;;;;;;;;;;6244088;23;19904;-64
2022/12/09 12:08:48;;;;;;;16.30;9.27;;;;;;;;;;6243984;23;20012;-64
2022/12/09 12:11:17;;;;;;;15.20;9.10;;;;;;;;;;6243501;23;20399;-64
2022/12/09 12:13:47;;;;;;;16.25;10.75;;;;;;;;;;6243003;23;20012;-64
2022/12/09 12:16:22;;;;;;;14.00;8.07;;;;;;;;;;6243648;23;20015;-64
2022/12/09 12:19:01;;;;;;;15.80;9.10;;;;;;;;;;6244199;23;20484;-64
2022/12/09 12:21:33;;;;;;;11.35;7.70;;;;;;;;;;6243695;23;20083;-64
2022/12/09 12:24:19;;;;;;;14.20;7.37;;;;;;;;;;6244024;23;20035;-64
2022/12/09 12:27:00;;;;;;;14.68;8.35;;;;;;;;;;6243706;22;20019;-63
2022/12/09 12:29:32;;;;;;;11.25;7.78;;;;;;;;;;6243758;23;20011;-63
2022/12/09 12:32:17;;;;;;;16.45;8.02;;;;;;;;;;6244215;23;20547;-63
2022/12/09 12:34:49;;;;;;;14.80;8.70;;;;;;;;;;6243870;23;20008;-63
2022/12/09 12:37:29;;;;;;;15.30;9.00;;;;;;;;;;6243451;23;20004;-63
2022/12/09 12:39:58;;;;;;;15.10;9.25;;;;;;;;;;6243984;23;20390;-63
2022/12/09 12:46:15;;;;;;;38.72;16.98;;;;;;;;;;6242942;23;19995;-63
2022/12/09 12:49:00;;;;;;;31.60;15.98;;;;;;;;;;6243730;23;20004;-64
2022/12/09 12:51:30;;;;;;;25.63;14.68;;;;;;;;;;6243623;22;20000;-64
2022/12/09 12:54:03;;;;;;;21.85;12.00;;;;;;;;;;6243592;23;20042;-63
2022/12/09 12:56:33;;;;;;;14.45;9.68;;;;;;;;;;6242777;23;20548;-63
2022/12/09 12:59:17;;;;;;;17.15;11.13;;;;;;;;;;6243397;23;20012;-63
2022/12/09 13:01:51;;;;;;;20.52;11.48;;;;;;;;;;6242917;23;20342;-63
2022/12/09 13:04:36;;;;;;;19.75;11.35;;;;;;;;;;6242765;23;20137;-63
2022/12/09 13:07:17;;;;;;;20.40;12.32;;;;;;;;;;6242697;22;20008;-63
2022/12/09 13:09:45;;;;;;;19.95;11.93;;;;;;;;;;6242329;23;20014;-63
2022/12/09 13:12:52;;;;;;;27.00;13.10;;;;;;;;;;6242003;23;20004;-62
2022/12/09 13:15:12;;;;;;;18.05;11.10;;;;;;;;;;6243061;23;20083;-63
2022/12/09 13:17:39;;;;;;;16.73;10.05;;;;;;;;;;6243498;23;20008;-63
2022/12/09 13:20:06;;;;;;;23.27;10.30;;;;;;;;;;6242956;23;20004;-63
2022/12/09 13:22:58;;;;;;;27.55;12.75;;;;;;;;;;6241935;23;20442;-63
2022/12/09 13:25:43;;;;;;;24.27;12.97;;;;;;;;;;6119686;23;20006;-63
2022/12/09 13:28:33;;;;;;;24.23;12.63;;;;;;;;;;6120235;23;20476;-63
2022/12/09 13:31:00;;;;;;;21.75;13.25;;;;;;;;;;6120230;23;20042;-63
2022/12/09 13:33:41;;;;;;;31.25;18.00;;;;;;;;;;6119783;23;20010;-63
2022/12/09 13:36:07;;;;;;;28.67;16.50;;;;;;;;;;6120231;23;20014;-63
2022/12/09 13:38:35;;;;;;;27.85;15.68;;;;;;;;;;6119606;23;20547;-63
2022/12/09 13:41:21;;;;;;;25.55;14.45;;;;;;;;;;6121817;23;20076;-63
2022/12/09 13:43:47;;;;;;;24.45;13.48;;;;;;;;;;6122152;23;20097;-63
2022/12/09 13:46:20;;;;;;;24.70;12.90;;;;;;;;;;6121841;23;20014;-63
2022/12/09 13:48:47;;;;;;;23.77;13.77;;;;;;;;;;6122103;23;20050;-63
2022/12/09 13:51:14;;;;;;;28.58;14.88;;;;;;;;;;6122074;23;20064;-63
2022/12/09 13:53:48;;;;;;;24.67;14.80;;;;;;;;;;6121348;23;20173;-63
2022/12/09 13:56:22;;;;;;;28.98;15.38;;;;;;;;;;6121565;23;20010;-63
2022/12/09 13:58:54;;;;;;;25.35;15.38;;;;;;;;;;6122105;23;20041;-63
2022/12/09 14:01:20;;;;;;;27.73;15.70;;;;;;;;;;6140002;23;20008;-63
2022/12/09 14:04:05;;;;;;;28.38;16.95;;;;;;;;;;6244583;23;20004;-63
2022/12/09 14:06:34;;;;;;;39.00;21.83;;;;;;;;;;6243590;23;20557;-64
2022/12/09 14:09:03;;;;;;;36.72;19.83;;;;;;;;;;6243902;23;20342;-64
2022/12/09 14:11:45;;;;;;;44.20;21.58;;;;;;;;;;6243738;23;20078;-63
2022/12/09 14:14:24;;;;;;;31.08;15.30;;;;;;;;;;6243794;22;20328;-63
2022/12/09 14:16:50;;;;;;;29.45;17.08;;;;;;;;;;6244165;23;20527;-63
2022/12/09 14:19:26;;;;;;;28.05;15.30;;;;;;;;;;6244351;23;20522;-63
2022/12/09 14:22:14;;;;;;;26.95;16.08;;;;;;;;;;6244465;23;20330;-63
2022/12/09 14:24:41;;;;;;;27.83;15.15;;;;;;;;;;6243949;22;20016;-63
2022/12/09 14:27:09;;;;;;;26.85;15.23;;;;;;;;;;6243958;23;20068;-64
2022/12/09 14:29:44;;;;;;;28.30;14.75;;;;;;;;;;6243901;23;20502;-63
2022/12/09 14:32:16;;;;;;;30.85;16.20;;;;;;;;;;6244190;23;20086;-63
2022/12/09 14:34:43;;;;;;;26.02;15.65;;;;;;;;;;6243969;23;20047;-63
2022/12/09 14:37:12;;;;;;;26.52;14.32;;;;;;;;;;6243628;23;20406;-63
2022/12/09 14:39:44;;;;;;;24.55;14.32;;;;;;;;;;6243727;23;20000;-63
2022/12/09 14:42:31;;;;;;;26.95;15.52;;;;;;;;;;6244055;23;20004;-63
2022/12/09 14:45:08;;;;;;;28.60;14.05;;;;;;;;;;6223740;23;20324;-64